createdAt,value
2022-11-05T00:01:47.833Z,12.18
2022-11-05T00:04:33.040Z,12.02
2022-11-05T00:07:24.595Z,12.53
2022-11-05T00:10:00.806Z,12.72
2022-11-05T00:12:46.092Z,12.76
2022-11-05T00:15:31.505Z,12.58
2022-11-05T00:18:00.727Z,12.63
2022-11-05T00:20:28.556Z,12.56
2022-11-05T00:23:18.628Z,12.62
2022-11-05T00:25:54.740Z,12.16
2022-11-05T00:28:22.547Z,11.78
2022-11-05T00:30:51.810Z,11.95
2022-11-05T00:33:20.980Z,12.07
2022-11-05T00:35:48.706Z,12.37
2022-11-05T00:38:18.657Z,12.66
2022-11-05T00:40:46.656Z,12.65
2022-11-05T00:43:31.845Z,12.73
2022-11-05T00:45:59.852Z,12.69
2022-11-05T00:48:46.679Z,12.52
2022-11-05T00:51:14.502Z,12.34
2022-11-05T00:53:42.508Z,12.55
2022-11-05T00:56:12.613Z,12.55
2022-11-05T00:58:40.413Z,12.63
2022-11-05T01:01:11.541Z,12.56
2022-11-05T01:03:41.022Z,12.53
2022-11-05T01:06:10.907Z,12.47
2022-11-05T01:08:39.004Z,12.53
2022-11-05T01:11:11.461Z,12.66
2022-11-05T01:13:40.458Z,12.80
2022-11-05T01:16:10.695Z,12.74
2022-11-05T01:18:41.910Z,12.68
2022-11-05T01:21:14.536Z,12.37
2022-11-05T01:23:42.523Z,12.68
2022-11-05T01:26:10.372Z,12.72
2022-11-05T01:28:38.450Z,12.81
2022-11-05T01:31:06.911Z,12.68
2022-11-05T01:33:34.739Z,12.85
2022-11-05T01:36:07.535Z,12.94
2022-11-05T01:38:35.346Z,12.98
2022-11-05T01:41:03.148Z,12.67
2022-11-05T01:43:47.141Z,12.79
2022-11-05T01:46:17.260Z,12.94
2022-11-05T01:48:45.162Z,12.90
2022-11-05T01:51:17.145Z,12.91
2022-11-05T01:53:49.494Z,12.99
2022-11-05T01:56:23.067Z,13.06
2022-11-05T01:58:54.842Z,12.99
2022-11-05T02:01:23.704Z,12.95
2022-11-05T02:03:56.439Z,12.78
2022-11-05T02:06:31.198Z,12.87
2022-11-05T02:09:03.922Z,12.92
2022-11-05T02:11:31.929Z,12.96
2022-11-05T02:14:00.333Z,12.99
2022-11-05T02:16:39.569Z,12.99
2022-11-05T02:19:31.150Z,12.94
2022-11-05T02:22:40.832Z,12.82
2022-11-05T02:25:28.420Z,12.95
2022-11-05T02:28:27.636Z,13.02
2022-11-05T02:31:01.750Z,12.90
2022-11-05T02:33:36.688Z,12.99
2022-11-05T02:36:22.383Z,13.00
2022-11-05T02:38:59.350Z,12.91
2022-11-05T02:41:36.451Z,12.98
2022-11-05T02:44:15.997Z,12.89
2022-11-05T02:46:53.070Z,12.93
2022-11-05T02:49:32.658Z,12.95
2022-11-05T02:52:06.078Z,12.91
2022-11-05T02:54:39.727Z,12.56
2022-11-05T02:57:07.989Z,12.53
2022-11-05T02:59:35.908Z,12.81
2022-11-05T03:02:06.941Z,12.97
2022-11-05T03:04:34.813Z,12.97
2022-11-05T03:07:22.880Z,13.06
2022-11-05T03:10:22.320Z,12.99
2022-11-05T03:13:04.957Z,12.82
2022-11-05T03:15:51.759Z,12.80
2022-11-05T03:18:27.946Z,12.88
2022-11-05T03:21:03.266Z,12.85
2022-11-05T03:23:37.523Z,12.96
2022-11-05T03:26:10.960Z,13.01
2022-11-05T03:28:42.473Z,13.06
2022-11-05T03:31:15.248Z,13.10
2022-11-05T03:33:45.993Z,12.92
2022-11-05T03:36:20.511Z,12.96
2022-11-05T03:38:52.441Z,12.65
2022-11-05T03:41:22.454Z,12.79
2022-11-05T03:43:53.350Z,12.98
2022-11-05T03:46:28.785Z,12.96
2022-11-05T03:49:03.428Z,12.85
2022-11-05T03:51:41.165Z,12.84
2022-11-05T03:54:09.169Z,12.60
2022-11-05T03:56:40.909Z,12.89
2022-11-05T03:59:11.779Z,12.98
2022-11-05T04:01:40.435Z,12.98
2022-11-05T04:04:10.324Z,12.73
2022-11-05T04:06:55.811Z,12.92
2022-11-05T04:09:43.600Z,12.98
2022-11-05T04:12:29.519Z,12.91
2022-11-05T04:14:57.457Z,12.68
2022-11-05T04:17:24.364Z,12.88
2022-11-05T04:20:10.969Z,12.63
2022-11-05T04:22:56.420Z,12.31
2022-11-05T04:25:24.481Z,12.65
2022-11-05T04:27:52.459Z,12.66
2022-11-05T04:30:20.283Z,12.59
2022-11-05T04:33:06.996Z,12.49
2022-11-05T04:35:38.614Z,12.24
2022-11-05T04:38:07.810Z,12.02
2022-11-05T04:40:36.178Z,12.15
2022-11-05T04:43:03.985Z,12.31
2022-11-05T04:45:34.260Z,12.45
2022-11-05T04:48:02.124Z,12.58
2022-11-05T04:50:30.073Z,12.69
2022-11-05T04:52:59.514Z,12.12
2022-11-05T04:55:28.409Z,12.35
2022-11-05T04:57:56.668Z,12.18
2022-11-05T05:00:25.317Z,12.40
2022-11-05T05:02:53.162Z,12.54
2022-11-05T05:05:21.956Z,12.58
2022-11-05T05:07:49.817Z,12.36
2022-11-05T05:10:19.392Z,12.51
2022-11-05T05:12:48.397Z,12.53
2022-11-05T05:15:16.218Z,12.59
2022-11-05T05:17:43.943Z,12.67
2022-11-05T05:20:29.224Z,12.58
2022-11-05T05:22:57.088Z,12.51
2022-11-05T05:25:26.206Z,12.57
2022-11-05T05:27:57.587Z,12.58
2022-11-05T05:30:25.998Z,12.41
2022-11-05T05:32:53.682Z,12.19
2022-11-05T05:35:21.390Z,12.31
2022-11-05T05:37:49.127Z,12.18
2022-11-05T05:40:16.909Z,12.49
2022-11-05T05:42:45.963Z,12.47
2022-11-05T05:45:13.740Z,12.33
2022-11-05T05:47:41.430Z,12.50
2022-11-05T05:50:09.332Z,12.44
2022-11-05T05:52:37.188Z,12.58
2022-11-05T05:55:07.682Z,12.28
2022-11-05T05:57:35.902Z,12.48
2022-11-05T06:00:06.761Z,12.53
2022-11-05T06:02:39.425Z,12.63
2022-11-05T06:05:08.038Z,12.52
2022-11-05T06:07:37.428Z,12.52
2022-11-05T06:10:07.327Z,12.59
2022-11-05T06:12:35.074Z,12.49
2022-11-05T06:15:02.760Z,12.53
2022-11-05T06:17:31.824Z,12.28
2022-11-05T06:19:59.605Z,12.47
2022-11-05T06:22:27.324Z,12.27
2022-11-05T06:24:55.065Z,12.21
2022-11-05T06:27:22.919Z,12.18
2022-11-05T06:29:50.728Z,12.20
2022-11-05T06:32:20.521Z,12.21
2022-11-05T06:34:49.593Z,12.27
2022-11-05T06:37:17.437Z,12.25
2022-11-05T06:39:45.198Z,12.25
2022-11-05T06:42:18.312Z,12.37
2022-11-05T06:44:48.528Z,12.26
2022-11-05T06:47:16.354Z,12.01
2022-11-05T06:49:44.060Z,12.16
2022-11-05T06:52:13.598Z,12.28
2022-11-05T06:54:42.385Z,12.19
2022-11-05T06:57:10.936Z,12.06
2022-11-05T06:59:39.228Z,12.17
2022-11-05T07:02:07.865Z,12.42
2022-11-05T07:04:35.610Z,12.20
2022-11-05T07:07:03.376Z,12.23
2022-11-05T07:09:32.538Z,12.38
2022-11-05T07:12:00.301Z,12.19
2022-11-05T07:14:28.044Z,12.42
2022-11-05T07:16:57.862Z,12.20
2022-11-05T07:19:25.709Z,12.42
2022-11-05T07:21:55.826Z,12.16
2022-11-05T07:24:23.551Z,12.35
2022-11-05T07:26:52.745Z,12.32
2022-11-05T07:29:20.485Z,12.16
2022-11-05T07:31:48.561Z,11.74
2022-11-05T07:34:16.261Z,11.98
2022-11-05T07:36:46.103Z,12.20
2022-11-05T07:39:13.847Z,12.26
2022-11-05T07:41:41.632Z,12.34
2022-11-05T07:44:11.618Z,12.38
2022-11-05T07:46:39.386Z,12.44
2022-11-05T07:49:07.130Z,12.00
2022-11-05T07:51:34.940Z,11.75
2022-11-05T07:54:02.942Z,11.54
2022-11-05T07:56:30.651Z,12.03
2022-11-05T07:58:58.484Z,12.02
2022-11-05T08:01:29.873Z,11.97
2022-11-05T08:03:57.769Z,12.14
2022-11-05T08:06:25.875Z,12.23
2022-11-05T08:08:54.432Z,11.67
2022-11-05T08:11:23.423Z,11.88
2022-11-05T08:13:51.539Z,11.96
2022-11-05T08:16:19.547Z,11.81
2022-11-05T08:18:48.648Z,11.85
2022-11-05T08:21:18.571Z,11.47
2022-11-05T08:23:46.370Z,11.70
2022-11-05T08:26:14.280Z,11.50
2022-11-05T08:28:41.972Z,11.69
2022-11-05T08:31:09.810Z,11.21
2022-11-05T08:33:37.499Z,11.38
2022-11-05T08:36:07.289Z,10.99
2022-11-05T08:38:35.068Z,11.29
2022-11-05T08:41:02.831Z,11.59
2022-11-05T08:43:32.614Z,11.31
2022-11-05T08:46:03.161Z,11.12
2022-11-05T08:48:30.896Z,11.49
2022-11-05T08:51:01.305Z,11.33
2022-11-05T08:53:30.488Z,11.45
2022-11-05T08:56:00.660Z,11.43
2022-11-05T08:58:28.585Z,11.64
2022-11-05T09:01:01.853Z,11.87
2022-11-05T09:03:32.430Z,11.68
2022-11-05T09:06:00.176Z,11.86
2022-11-05T09:08:27.971Z,11.56
2022-11-05T09:10:57.302Z,11.54
2022-11-05T09:13:25.727Z,11.53
2022-11-05T09:15:54.065Z,11.51
2022-11-05T09:18:22.117Z,11.38
2022-11-05T09:20:49.863Z,11.75
2022-11-05T09:23:18.398Z,11.41
2022-11-05T09:25:46.478Z,11.56
2022-11-05T09:28:17.980Z,11.56
2022-11-05T09:30:47.590Z,11.17
2022-11-05T09:33:16.147Z,11.37
2022-11-05T09:35:44.517Z,10.80
2022-11-05T09:38:12.357Z,11.44
2022-11-05T09:40:45.805Z,11.85
2022-11-05T09:43:19.393Z,11.65
2022-11-05T09:45:51.081Z,11.22
2022-11-05T09:48:22.484Z,11.75
2022-11-05T09:50:52.241Z,11.69
2022-11-05T09:53:23.803Z,11.86
2022-11-05T09:55:54.477Z,12.11
2022-11-05T09:58:31.071Z,11.72
2022-11-05T10:00:59.658Z,11.60
2022-11-05T10:03:30.979Z,12.00
2022-11-05T10:06:09.336Z,11.76
2022-11-05T10:08:43.401Z,11.50
2022-11-05T10:11:16.804Z,11.61
2022-11-05T10:13:48.718Z,12.20
2022-11-05T10:16:24.875Z,12.57
2022-11-05T10:18:56.170Z,12.29
2022-11-05T10:21:44.108Z,12.27
2022-11-05T10:24:15.595Z,11.62
2022-11-05T10:26:47.719Z,11.64
2022-11-05T10:29:23.474Z,12.13
2022-11-05T10:31:54.902Z,11.85
2022-11-05T10:34:27.173Z,12.20
2022-11-05T10:36:55.200Z,11.84
2022-11-05T10:39:24.310Z,11.27
2022-11-05T10:42:07.414Z,11.45
2022-11-05T10:44:45.168Z,11.90
2022-11-05T10:47:45.984Z,12.21
2022-11-05T10:50:17.951Z,11.43
2022-11-05T10:52:56.416Z,11.80
2022-11-05T10:55:25.971Z,12.46
2022-11-05T10:57:54.325Z,12.53
2022-11-05T11:00:28.157Z,12.73
2022-11-05T11:02:59.170Z,12.21
2022-11-05T11:05:32.524Z,11.18
2022-11-05T11:08:25.006Z,11.46
2022-11-05T11:10:55.620Z,11.74
2022-11-05T11:13:28.169Z,12.52
2022-11-05T11:16:15.421Z,12.12
2022-11-05T11:18:44.477Z,12.08
2022-11-05T11:21:15.678Z,11.97
2022-11-05T11:23:53.917Z,11.85
2022-11-05T11:26:22.878Z,12.21
2022-11-05T11:28:56.750Z,12.75
2022-11-05T11:31:28.285Z,12.84
2022-11-05T11:34:01.918Z,12.88
2022-11-05T11:36:35.669Z,13.49
2022-11-05T11:39:07.963Z,12.72
2022-11-05T11:41:41.871Z,12.93
2022-11-05T11:44:16.401Z,13.15
2022-11-05T11:46:48.636Z,13.21
2022-11-05T11:49:33.459Z,12.84
2022-11-05T11:52:08.371Z,13.03
2022-11-05T11:54:37.093Z,13.28
2022-11-05T11:57:21.555Z,13.41
2022-11-05T12:03:14.284Z,13.55
2022-11-05T12:05:48.479Z,13.09
2022-11-05T12:08:54.178Z,13.06
2022-11-05T12:11:30.829Z,13.67
2022-11-05T12:14:05.146Z,13.32
2022-11-05T12:17:02.693Z,12.52
2022-11-05T12:19:54.421Z,13.41
2022-11-05T12:22:34.492Z,14.15
2022-11-05T12:25:22.539Z,14.76
2022-11-05T12:28:11.757Z,14.44
2022-11-05T12:30:53.058Z,14.18
2022-11-05T12:33:28.432Z,14.20
2022-11-05T12:36:07.505Z,14.36
2022-11-05T12:39:02.683Z,13.91
2022-11-05T12:41:34.871Z,14.80
2022-11-05T12:44:17.336Z,14.79
2022-11-05T12:46:54.632Z,14.73
2022-11-05T12:49:35.575Z,15.36
2022-11-05T12:52:18.799Z,14.94
2022-11-05T12:55:01.043Z,14.74
2022-11-05T12:57:31.907Z,14.54
2022-11-05T13:00:10.574Z,13.76
2022-11-05T13:02:46.152Z,14.29
2022-11-05T13:05:17.919Z,14.33
2022-11-05T13:07:54.412Z,14.31
2022-11-05T13:10:30.031Z,14.24
2022-11-05T13:13:03.443Z,14.18
2022-11-05T13:15:36.956Z,14.13
2022-11-05T13:18:10.449Z,14.10
2022-11-05T13:20:41.049Z,13.90
2022-11-05T13:23:17.495Z,14.14
2022-11-05T13:25:51.447Z,14.18
2022-11-05T13:28:32.679Z,14.18
2022-11-05T13:31:05.330Z,14.22
2022-11-05T13:33:38.929Z,14.13
2022-11-05T13:36:28.841Z,14.04
2022-11-05T13:39:06.889Z,13.94
2022-11-05T13:41:54.375Z,13.83
2022-11-05T13:45:06.058Z,13.94
2022-11-05T13:47:54.339Z,13.86
2022-11-05T13:50:46.261Z,13.84
2022-11-05T13:53:43.904Z,13.73
2022-11-05T13:56:23.956Z,13.88
2022-11-05T13:59:11.133Z,13.92
2022-11-05T14:01:49.373Z,14.03
2022-11-05T14:04:35.497Z,13.63
2022-11-05T14:07:10.661Z,13.69
2022-11-05T14:09:41.095Z,12.99
2022-11-05T14:12:21.097Z,13.71
2022-11-05T14:14:58.660Z,13.77
2022-11-05T14:17:32.100Z,13.71
2022-11-05T14:20:26.047Z,13.60
2022-11-05T14:22:54.446Z,13.58
2022-11-05T14:25:53.085Z,13.45
2022-11-05T14:28:44.517Z,13.56
2022-11-05T14:32:07.876Z,13.50
2022-11-05T14:34:44.586Z,13.41
2022-11-05T14:37:23.683Z,13.60
2022-11-05T14:39:52.003Z,13.07
2022-11-05T14:42:25.122Z,13.36
2022-11-05T14:45:00.045Z,13.68
2022-11-05T14:47:32.838Z,13.60
2022-11-05T14:50:09.449Z,13.57
2022-11-05T14:52:39.120Z,13.50
2022-11-05T14:55:24.033Z,13.40
2022-11-05T14:58:26.794Z,13.49
2022-11-05T15:00:57.993Z,13.42
2022-11-05T15:04:00.973Z,13.12
2022-11-05T15:06:32.462Z,13.12
2022-11-05T15:09:27.919Z,12.56
2022-11-05T15:12:12.987Z,12.69
2022-11-05T15:14:50.091Z,12.61
2022-11-05T15:17:23.390Z,13.02
2022-11-05T15:19:53.996Z,12.88
2022-11-05T15:22:32.143Z,12.84
2022-11-05T15:25:00.218Z,13.14
2022-11-05T15:27:43.800Z,13.31
2022-11-05T15:30:20.465Z,13.23
2022-11-05T15:32:48.484Z,13.28
2022-11-05T15:35:26.876Z,13.07
2022-11-05T15:38:01.713Z,13.32
2022-11-05T15:40:32.447Z,13.09
2022-11-05T15:43:11.376Z,12.82
2022-11-05T15:45:40.052Z,13.17
2022-11-05T15:48:20.790Z,13.23
2022-11-05T15:50:50.041Z,12.94
2022-11-05T15:53:44.113Z,13.09
2022-11-05T15:56:13.000Z,13.07
2022-11-05T15:58:48.096Z,12.95
2022-11-05T16:01:24.598Z,12.34
2022-11-05T16:03:53.973Z,12.97
2022-11-05T16:06:24.605Z,12.74
2022-11-05T16:08:52.573Z,13.06
2022-11-05T16:11:25.176Z,13.17
2022-11-05T16:13:54.294Z,12.99
2022-11-05T16:16:26.846Z,12.98
2022-11-05T16:18:54.766Z,13.04
2022-11-05T16:21:23.987Z,12.90
2022-11-05T16:23:55.606Z,13.05
2022-11-05T16:27:01.331Z,12.84
2022-11-05T16:29:31.089Z,13.02
2022-11-05T16:32:03.684Z,13.06
2022-11-05T16:34:39.113Z,12.94
2022-11-05T16:37:12.733Z,12.83
2022-11-05T16:39:40.573Z,12.84
2022-11-05T16:42:37.281Z,12.53
2022-11-05T16:45:06.497Z,12.27
2022-11-05T16:47:34.479Z,12.61
2022-11-05T16:50:02.358Z,12.74
2022-11-05T16:52:31.576Z,12.78
2022-11-05T16:54:59.257Z,12.64
2022-11-05T16:57:29.602Z,12.52
2022-11-05T16:59:59.037Z,12.54
2022-11-05T17:02:27.219Z,12.48
2022-11-05T17:04:55.134Z,12.48
2022-11-05T17:07:22.930Z,12.40
2022-11-05T17:09:52.110Z,12.25
2022-11-05T17:12:19.840Z,12.08
2022-11-05T17:14:47.561Z,11.94
2022-11-05T17:17:15.397Z,11.89
2022-11-05T17:19:47.884Z,11.94
2022-11-05T17:22:15.627Z,11.71
2022-11-05T17:24:43.359Z,11.70
2022-11-05T17:27:12.393Z,11.50
2022-11-05T17:29:40.107Z,11.76
2022-11-05T17:32:08.378Z,11.23
2022-11-05T17:34:36.374Z,11.12
2022-11-05T17:37:04.089Z,11.11
2022-11-05T17:39:32.211Z,11.08
2022-11-05T17:41:59.923Z,10.67
2022-11-05T17:44:29.130Z,11.04
2022-11-05T17:46:59.081Z,11.06
2022-11-05T17:49:26.814Z,11.11
2022-11-05T17:51:54.555Z,10.98
2022-11-05T17:54:22.320Z,10.96
2022-11-05T17:56:50.101Z,10.94
2022-11-05T17:59:17.819Z,10.85
2022-11-05T18:01:47.362Z,11.09
2022-11-05T18:04:15.226Z,11.03
2022-11-05T18:06:43.462Z,10.92
2022-11-05T18:09:11.732Z,11.03
2022-11-05T18:11:40.198Z,10.93
2022-11-05T18:14:08.253Z,10.91
2022-11-05T18:16:36.610Z,10.82
2022-11-05T18:19:06.167Z,10.90
2022-11-05T18:21:33.958Z,10.42
2022-11-05T18:24:04.145Z,10.67
2022-11-05T18:26:31.931Z,10.79
2022-11-05T18:29:02.055Z,10.62
2022-11-05T18:31:30.037Z,10.44
2022-11-05T18:33:59.675Z,10.65
2022-11-05T18:36:30.593Z,10.68
2022-11-05T18:38:59.233Z,10.77
2022-11-05T18:41:27.090Z,10.77
2022-11-05T18:43:59.751Z,10.78
2022-11-05T18:46:56.062Z,10.82
2022-11-05T18:49:15.777Z,10.30
2022-11-05T18:51:44.942Z,10.57
2022-11-05T18:54:12.923Z,10.63
2022-11-05T18:56:45.230Z,10.39
2022-11-05T19:02:02.109Z,10.45
2022-11-05T19:04:30.537Z,10.37
2022-11-05T19:07:04.521Z,10.40
2022-11-05T19:09:33.127Z,10.36
2022-11-05T19:12:00.891Z,10.16
2022-11-05T19:14:29.965Z,10.27
2022-11-05T19:16:58.159Z,10.35
2022-11-05T19:19:29.113Z,10.26
2022-11-05T19:21:56.996Z,10.28
2022-11-05T19:24:26.153Z,10.25
2022-11-05T19:26:54.000Z,10.29
2022-11-05T19:29:21.810Z,10.36
2022-11-05T19:31:51.819Z,10.39
2022-11-05T19:34:21.863Z,10.36
2022-11-05T19:36:49.620Z,10.21
2022-11-05T19:39:17.364Z,10.19
2022-11-05T19:41:47.760Z,10.17
2022-11-05T19:44:15.586Z,10.18
2022-11-05T19:46:44.886Z,10.17
2022-11-05T19:49:12.775Z,9.75
2022-11-05T19:51:40.733Z,9.37
2022-11-05T19:54:08.911Z,9.57
2022-11-05T19:56:38.474Z,9.55
2022-11-05T19:59:07.965Z,9.75
2022-11-05T20:01:36.540Z,9.87
2022-11-05T20:04:05.543Z,9.93
2022-11-05T20:06:38.575Z,9.89
2022-11-05T20:09:27.210Z,9.87
2022-11-05T20:11:56.292Z,9.66
2022-11-05T20:14:26.966Z,9.41
2022-11-05T20:16:54.964Z,9.13
2022-11-05T20:19:23.757Z,9.22
2022-11-05T20:21:51.636Z,9.31
2022-11-05T20:24:25.216Z,9.50
2022-11-05T20:26:54.476Z,9.62
2022-11-05T20:29:23.248Z,9.63
2022-11-05T20:31:53.414Z,9.68
2022-11-05T20:34:21.353Z,9.72
2022-11-05T20:36:51.530Z,9.57
2022-11-05T20:39:21.134Z,9.58
2022-11-05T20:41:49.010Z,9.67
2022-11-05T20:44:16.743Z,9.63
2022-11-05T20:46:44.833Z,8.71
2022-11-05T20:49:13.980Z,9.11
2022-11-05T20:51:41.661Z,9.36
2022-11-05T20:54:10.263Z,9.55
2022-11-05T20:56:37.959Z,9.21
2022-11-05T20:59:06.293Z,9.11
2022-11-05T21:01:35.345Z,8.84
2022-11-05T21:04:04.383Z,9.09
2022-11-05T21:06:34.807Z,9.17
2022-11-05T21:09:03.171Z,9.30
2022-11-05T21:11:51.120Z,9.24
2022-11-05T21:14:18.860Z,8.55
2022-11-05T21:16:48.988Z,8.32
2022-11-05T21:19:16.776Z,8.47
2022-11-05T21:21:45.881Z,8.91
2022-11-05T21:24:13.577Z,8.93
2022-11-05T21:26:41.338Z,8.74
2022-11-05T21:29:09.126Z,8.99
2022-11-05T21:31:37.075Z,8.60
2022-11-05T21:34:05.194Z,8.65
2022-11-05T21:36:33.034Z,8.77
2022-11-05T21:39:02.204Z,9.02
2022-11-05T21:41:29.974Z,9.15
2022-11-05T21:43:58.076Z,9.14
2022-11-05T21:46:25.783Z,8.29
2022-11-05T21:48:53.548Z,8.32
2022-11-05T21:51:38.714Z,8.54
2022-11-05T21:54:25.479Z,8.67
2022-11-05T21:57:11.164Z,8.09
2022-11-05T21:59:51.930Z,8.38
2022-11-05T22:02:22.331Z,8.64
2022-11-05T22:04:52.129Z,8.76
2022-11-05T22:07:22.809Z,8.56
2022-11-05T22:09:52.035Z,8.53
2022-11-05T22:12:19.786Z,8.20
2022-11-05T22:14:49.844Z,8.22
2022-11-05T22:17:18.255Z,8.30
2022-11-05T22:19:46.304Z,8.53
2022-11-05T22:22:14.802Z,8.59
2022-11-05T22:24:43.229Z,8.68
2022-11-05T22:27:15.010Z,8.61
2022-11-05T22:29:43.563Z,8.55
2022-11-05T22:32:13.936Z,8.51
2022-11-05T22:34:41.650Z,8.61
2022-11-05T22:37:09.429Z,8.18
2022-11-05T22:39:37.267Z,7.62
2022-11-05T22:42:08.507Z,7.96
2022-11-05T22:44:38.537Z,8.23
2022-11-05T22:47:06.880Z,8.20
2022-11-05T22:49:35.048Z,7.93
2022-11-05T22:52:05.264Z,8.23
2022-11-05T22:54:38.808Z,8.30
2022-11-05T22:57:06.942Z,8.39
2022-11-05T22:59:34.674Z,8.47
2022-11-05T23:02:09.235Z,8.39
2022-11-05T23:04:37.844Z,8.58
2022-11-05T23:07:27.272Z,8.68
2022-11-05T23:10:12.921Z,8.60
2022-11-05T23:12:42.660Z,8.60
2022-11-05T23:15:31.212Z,8.67
2022-11-05T23:18:18.493Z,8.73
2022-11-05T23:21:03.886Z,8.40
2022-11-05T23:23:49.086Z,8.00
2022-11-05T23:26:34.469Z,7.91
2022-11-05T23:29:02.296Z,8.18
2022-11-05T23:31:47.558Z,8.45
2022-11-05T23:34:16.611Z,8.29
2022-11-05T23:37:01.824Z,8.52
2022-11-05T23:39:29.667Z,8.62
2022-11-05T23:42:14.790Z,8.63
2022-11-05T23:45:00.229Z,8.63
2022-11-05T23:47:50.783Z,8.44
2022-11-05T23:50:19.884Z,8.29
2022-11-05T23:52:47.592Z,8.36
2022-11-05T23:55:15.386Z,8.53
2022-11-05T23:57:45.282Z,8.67
